createdAt,value
2022-12-01T00:03:37.738Z,9.30
2022-12-01T00:09:52.771Z,8.40
2022-12-01T00:16:17.199Z,7.70
2022-12-01T00:22:41.649Z,8.70
2022-12-01T00:29:05.920Z,8.30
2022-12-01T00:35:30.295Z,7.10
2022-12-01T00:41:54.730Z,6.80
2022-12-01T00:48:19.009Z,7.00
2022-12-01T00:54:43.342Z,7.10
2022-12-01T01:01:03.242Z,7.80
2022-12-01T01:07:21.553Z,8.40
2022-12-01T01:13:46.123Z,6.50
2022-12-01T01:20:10.425Z,6.90
2022-12-01T01:26:34.860Z,6.60
2022-12-01T01:32:59.236Z,6.70
2022-12-01T01:39:23.604Z,6.60
2022-12-01T01:45:53.656Z,7.10
2022-12-01T01:52:18.038Z,6.10
2022-12-01T01:58:45.122Z,6.50
2022-12-01T02:05:09.531Z,6.00
2022-12-01T02:11:39.875Z,5.60
2022-12-01T02:18:10.236Z,6.00
2022-12-01T02:24:38.996Z,6.50
2022-12-01T02:31:06.346Z,5.70
2022-12-01T02:37:31.224Z,5.90
2022-12-01T02:44:10.792Z,6.00
2022-12-01T02:50:35.104Z,4.90
2022-12-01T02:56:59.481Z,6.30
2022-12-01T03:03:29.544Z,5.60
2022-12-01T03:09:56.676Z,5.70
2022-12-01T03:16:45.088Z,5.30
2022-12-01T03:23:18.233Z,4.70
2022-12-01T03:29:42.532Z,4.70
2022-12-01T03:36:09.757Z,5.00
2022-12-01T03:42:34.050Z,4.60
2022-12-01T03:48:58.475Z,4.80
2022-12-01T03:55:38.146Z,4.90
2022-12-01T04:02:05.490Z,5.40
2022-12-01T04:08:29.946Z,5.70
2022-12-01T04:14:54.342Z,4.50
2022-12-01T04:21:18.653Z,4.50
2022-12-01T04:27:43.060Z,3.80
2022-12-01T04:34:07.569Z,4.50
2022-12-01T04:40:21.837Z,4.10
2022-12-01T04:46:46.345Z,4.90
2022-12-01T04:53:10.664Z,4.00
2022-12-01T04:59:35.123Z,4.00
2022-12-01T05:05:58.444Z,4.20
2022-12-01T05:12:22.818Z,5.00
2022-12-01T05:18:47.139Z,4.00
2022-12-01T05:25:11.522Z,4.20
2022-12-01T05:31:35.860Z,4.30
2022-12-01T05:38:06.079Z,4.50
2022-12-01T05:44:30.966Z,4.70
2022-12-01T05:50:55.393Z,4.20
2022-12-01T05:57:19.863Z,3.90
2022-12-01T06:03:44.327Z,4.00
2022-12-01T06:10:08.827Z,3.50
2022-12-01T06:16:42.047Z,3.80
2022-12-01T06:23:06.465Z,3.90
2022-12-01T06:29:30.906Z,3.20
2022-12-01T06:35:55.424Z,3.40
2022-12-01T06:42:19.747Z,2.90
2022-12-01T06:48:44.138Z,3.30
2022-12-01T06:55:08.551Z,4.10
2022-12-01T07:01:33.076Z,3.80
2022-12-01T07:07:59.722Z,4.60
2022-12-01T07:14:24.343Z,4.40
2022-12-01T07:20:48.847Z,4.60
2022-12-01T07:27:13.206Z,5.00
2022-12-01T07:33:37.594Z,4.00
2022-12-01T07:40:01.987Z,4.00
2022-12-01T07:46:26.373Z,4.30
2022-12-01T07:52:50.832Z,5.30
2022-12-01T07:59:15.251Z,4.00
2022-12-01T08:05:39.655Z,3.80
2022-12-01T08:12:04.004Z,8.10
2022-12-01T08:18:28.377Z,5.20
2022-12-01T08:24:55.476Z,5.90
2022-12-01T08:31:19.980Z,6.70
2022-12-01T08:37:44.481Z,3.80
2022-12-01T08:44:08.881Z,3.80
2022-12-01T08:50:33.252Z,5.20
2022-12-01T08:56:51.263Z,5.30
2022-12-01T09:03:15.584Z,4.70
2022-12-01T09:09:39.881Z,6.90
2022-12-01T09:16:04.343Z,7.30
2022-12-01T09:22:28.682Z,5.20
2022-12-01T09:28:53.030Z,4.20
2022-12-01T09:35:20.819Z,5.70
2022-12-01T09:41:53.211Z,5.30
2022-12-01T09:48:26.812Z,5.60
2022-12-01T09:54:51.108Z,5.10
2022-12-01T10:01:14.551Z,6.00
2022-12-01T10:07:42.182Z,5.50
2022-12-01T10:14:09.732Z,5.50
2022-12-01T10:20:45.955Z,4.60
2022-12-01T10:27:12.998Z,5.50
2022-12-01T10:33:37.424Z,4.30
2022-12-01T10:40:01.819Z,5.50
2022-12-01T10:46:26.231Z,5.10
2022-12-01T10:52:51.986Z,5.20
2022-12-01T10:59:25.321Z,5.50
2022-12-01T11:06:01.530Z,5.20
2022-12-01T11:12:25.918Z,5.80
2022-12-01T11:19:05.757Z,6.00
2022-12-01T11:25:36.086Z,5.00
2022-12-01T11:32:00.419Z,5.30
2022-12-01T11:38:29.926Z,5.00
2022-12-01T11:44:57.222Z,4.80
2022-12-01T11:51:24.541Z,5.00
2022-12-01T11:57:48.943Z,4.70
2022-12-01T12:04:13.346Z,6.00
2022-12-01T12:10:46.567Z,5.60
2022-12-01T12:17:25.825Z,5.70
2022-12-01T12:24:02.707Z,5.30
2022-12-01T12:30:45.328Z,4.80
2022-12-01T12:37:21.324Z,7.30
2022-12-01T12:43:48.569Z,6.50
2022-12-01T12:50:25.167Z,8.10
2022-12-01T12:56:49.782Z,8.20
2022-12-01T13:03:30.607Z,8.90
2022-12-01T13:10:00.686Z,7.60
2022-12-01T13:16:25.562Z,6.00
2022-12-01T13:22:49.942Z,6.40
2022-12-01T13:29:23.000Z,6.70
2022-12-01T13:36:38.236Z,5.80
2022-12-01T13:42:39.732Z,6.70
2022-12-01T13:49:12.837Z,7.00
2022-12-01T13:56:00.875Z,7.00
2022-12-01T14:02:25.223Z,8.70
2022-12-01T14:09:04.705Z,4.70
2022-12-01T14:15:29.101Z,5.30
2022-12-01T14:21:53.531Z,5.90
2022-12-01T14:28:17.820Z,4.90
2022-12-01T14:35:00.405Z,7.20
2022-12-01T14:41:24.801Z,5.20
2022-12-01T14:47:49.655Z,5.20
2022-12-01T14:54:16.875Z,6.00
2022-12-01T15:00:47.120Z,6.00
2022-12-01T15:07:11.870Z,4.40
2022-12-01T15:13:36.247Z,5.40
2022-12-01T15:20:03.141Z,5.10
2022-12-01T15:26:27.546Z,5.40
2022-12-01T15:32:51.880Z,5.10
2022-12-01T15:39:15.006Z,6.70
2022-12-01T15:45:39.518Z,5.90
2022-12-01T15:52:06.630Z,6.90
2022-12-01T15:58:31.151Z,5.40
2022-12-01T16:05:27.443Z,8.00
2022-12-01T16:12:10.372Z,6.80
2022-12-01T16:18:46.590Z,7.80
2022-12-01T16:25:13.947Z,8.20
2022-12-01T16:31:58.625Z,6.40
2022-12-01T16:38:22.750Z,9.00
2022-12-01T16:44:47.151Z,7.40
2022-12-01T16:51:14.650Z,8.60
2022-12-01T16:57:39.232Z,6.80
2022-12-01T17:04:07.401Z,7.90
2022-12-01T17:10:32.271Z,7.20
2022-12-01T17:16:57.478Z,7.70
2022-12-01T17:23:21.801Z,6.90
2022-12-01T17:29:45.675Z,6.40
2022-12-01T17:36:10.567Z,7.20
2022-12-01T17:42:34.939Z,6.70
2022-12-01T17:48:59.389Z,6.90
2022-12-01T17:55:23.676Z,7.70
2022-12-01T18:01:48.328Z,7.80
2022-12-01T18:08:12.841Z,7.50
2022-12-01T18:14:40.163Z,7.40
2022-12-01T18:21:04.468Z,7.90
2022-12-01T18:27:28.808Z,8.00
2022-12-01T18:33:53.223Z,6.60
2022-12-01T18:40:17.529Z,8.80
2022-12-01T18:46:42.100Z,10.60
2022-12-01T18:53:06.444Z,8.30
2022-12-01T18:59:37.400Z,8.60
2022-12-01T19:06:01.738Z,9.20
2022-12-01T19:12:26.128Z,8.20
2022-12-01T19:18:50.468Z,8.70
2022-12-01T19:25:14.860Z,7.90
2022-12-01T19:31:39.356Z,9.60
2022-12-01T19:38:03.793Z,10.00
2022-12-01T19:44:28.257Z,9.30
2022-12-01T19:50:52.757Z,7.90
2022-12-01T19:57:17.021Z,9.30
2022-12-01T20:03:41.522Z,8.80
2022-12-01T20:10:06.100Z,7.70
2022-12-01T20:16:20.510Z,9.60
2022-12-01T20:22:44.836Z,9.90
2022-12-01T20:29:09.161Z,8.70
2022-12-01T20:35:33.825Z,9.00
2022-12-01T20:41:58.230Z,9.40
2022-12-01T20:48:22.621Z,8.70
2022-12-01T20:54:47.053Z,8.40
2022-12-01T21:01:10.329Z,10.40
2022-12-01T21:07:37.277Z,11.30
2022-12-01T21:14:04.442Z,8.90
2022-12-01T21:20:34.430Z,8.50
2022-12-01T21:26:58.693Z,7.20
2022-12-01T21:33:31.928Z,8.60
2022-12-01T21:39:58.954Z,6.80
2022-12-01T21:46:19.912Z,7.30
2022-12-01T21:52:44.285Z,7.90
2022-12-01T21:59:14.615Z,6.70
2022-12-01T22:05:32.784Z,6.30
2022-12-01T22:11:59.674Z,6.10
2022-12-01T22:18:24.071Z,7.60
2022-12-01T22:24:48.546Z,6.90
2022-12-01T22:31:16.223Z,6.60
2022-12-01T22:37:40.569Z,6.80
2022-12-01T22:44:19.868Z,6.80
2022-12-01T22:50:48.692Z,7.10
2022-12-01T22:57:27.745Z,6.50
2022-12-01T23:03:52.112Z,5.60
2022-12-01T23:10:16.410Z,6.30
2022-12-01T23:16:40.745Z,5.40
2022-12-01T23:23:05.040Z,6.60
2022-12-01T23:29:28.769Z,6.80
2022-12-01T23:35:53.034Z,6.10
2022-12-01T23:42:23.218Z,5.70
2022-12-01T23:48:47.519Z,5.00
2022-12-01T23:55:11.934Z,5.70
